Time;durP1;ratioP1;P1;durP2;ratioP2;P2;SDS_P1;SDS_P2;PMS_P1;PMS_P2;Temp;Humidity;BMP_temperature;BMP_pressure;BME280_temperature;BME280_humidity;BME280_pressure;Samples;Min_cycle;Max_cycle;Signal;HPM_P1;HPM_P2
2022/09/27 00:00:41;;;;;;;9.65;1.85;;;10.30;99.90;;;;;;5080070;28;20029;-70
2022/09/27 00:03:08;;;;;;;8.27;1.55;;;10.30;99.90;;;;;;5078800;28;20047;-69
2022/09/27 00:05:34;;;;;;;5.93;1.38;;;10.30;99.90;;;;;;5086594;28;20131;-70
2022/09/27 00:08:00;;;;;;;11.30;2.20;;;10.30;99.90;;;;;;5076419;28;20126;-72
2022/09/27 00:10:25;;;;;;;8.20;1.30;;;10.20;99.90;;;;;;5082080;28;20441;-72
2022/09/27 00:12:51;;;;;;;8.52;1.60;;;10.20;99.90;;;;;;5083219;28;20036;-70
2022/09/27 00:15:17;;;;;;;10.93;1.83;;;10.20;99.90;;;;;;5066907;28;20048;-70
2022/09/27 00:17:46;;;;;;;9.02;1.67;;;10.20;99.90;;;;;;5079241;28;20077;-70
2022/09/27 00:20:12;;;;;;;4.00;1.45;;;10.10;99.90;;;;;;5078314;28;20058;-70
2022/09/27 00:22:37;;;;;;;6.38;1.35;;;10.10;99.90;;;;;;5084187;28;20182;-70
2022/09/27 00:25:06;;;;;;;8.77;1.38;;;10.10;99.90;;;;;;5081500;28;20078;-70
2022/09/27 00:27:32;;;;;;;8.05;1.50;;;10.10;99.90;;;;;;5080115;28;20044;-70
2022/09/27 00:29:57;;;;;;;7.20;1.48;;;10.00;99.90;;;;;;5082210;28;20496;-70
2022/09/27 00:32:23;;;;;;;9.05;1.63;;;9.90;99.90;;;;;;5059759;28;20045;-70
2022/09/27 00:34:49;;;;;;;10.00;1.30;;;9.90;99.90;;;;;;5083768;28;20052;-70
2022/09/27 00:37:14;;;;;;;6.70;1.42;;;9.80;99.90;;;;;;5060001;28;20048;-70
2022/09/27 00:39:40;;;;;;;8.80;1.33;;;9.80;99.90;;;;;;5079520;28;20491;-70
2022/09/27 00:42:10;;;;;;;5.75;1.10;;;9.70;99.90;;;;;;5081752;28;20060;-71
2022/09/27 00:44:38;;;;;;;6.80;1.10;;;9.70;99.90;;;;;;5078941;28;20044;-70
2022/09/27 00:47:28;;;;;;;5.13;1.15;;;9.60;99.90;;;;;;5080564;28;20035;-71
2022/09/27 00:50:00;;;;;;;5.78;1.08;;;9.50;99.90;;;;;;5081742;28;20514;-71
2022/09/27 00:52:32;;;;;;;5.90;1.50;;;9.50;99.90;;;;;;5082226;28;20421;-70
2022/09/27 00:55:04;;;;;;;6.07;1.65;;;9.40;99.90;;;;;;5081975;28;20615;-70
2022/09/27 00:57:30;;;;;;;4.78;1.17;;;;;;;;;;5081997;28;20071;-70
2022/09/27 01:00:04;;;;;;;9.20;1.20;;;9.30;99.90;;;;;;5080221;28;20051;-70
2022/09/27 01:02:30;;;;;;;8.63;1.60;;;9.20;99.90;;;;;;5076624;28;20032;-71
2022/09/27 01:04:56;;;;;;;5.78;1.10;;;9.20;99.90;;;;;;5079209;28;20036;-71
2022/09/27 01:07:21;;;;;;;6.97;1.02;;;9.20;99.90;;;;;;5075306;28;20389;-71
2022/09/27 01:09:48;;;;;;;3.92;1.05;;;9.10;99.90;;;;;;5079354;28;20170;-72
2022/09/27 01:12:38;;;;;;;6.60;0.93;;;9.10;99.90;;;;;;5078154;28;20120;-71
2022/09/27 01:15:12;;;;;;;9.88;1.63;;;9.10;99.90;;;;;;5081923;28;20123;-70
2022/09/27 01:17:57;;;;;;;3.40;0.85;;;9.10;99.90;;;;;;5065414;28;20126;-70
2022/09/27 01:20:57;;;;;;;7.05;1.40;;;9.00;99.90;;;;;;5066856;28;20463;-70
2022/09/27 01:23:28;;;;;;;6.55;1.30;;;9.00;99.90;;;;;;5081164;28;20376;-70
2022/09/27 01:26:15;;;;;;;8.82;1.42;;;9.00;99.90;;;;;;5080946;28;20133;-71
2022/09/27 01:28:56;;;;;;;5.05;1.27;;;9.00;99.90;;;;;;5080352;28;21807;-70
2022/09/27 01:31:39;;;;;;;3.50;1.08;;;9.00;99.90;;;;;;5077290;28;20033;-70
2022/09/27 01:34:51;;;;;;;6.00;0.98;;;8.90;99.90;;;;;;5082427;28;20119;-70
2022/09/27 01:37:46;;;;;;;5.82;1.25;;;9.00;99.90;;;;;;5054217;28;20513;-70
2022/09/27 01:40:23;;;;;;;3.05;0.90;;;9.00;99.90;;;;;;5077983;28;20048;-71
2022/09/27 01:42:55;;;;;;;5.53;1.00;;;9.00;99.90;;;;;;5079723;28;20044;-71
2022/09/27 01:45:24;;;;;;;5.53;1.00;;;9.00;99.90;;;;;;5080562;28;20043;-70
2022/09/27 01:48:00;;;;;;;5.40;0.90;;;9.00;99.90;;;;;;5079875;28;20036;-71
2022/09/27 01:50:38;;;;;;;4.20;1.20;;;9.10;99.90;;;;;;5077528;28;20050;-71
2022/09/27 01:53:20;;;;;;;3.35;0.90;;;9.20;99.90;;;;;;5080609;28;21259;-71
2022/09/27 01:55:48;;;;;;;3.80;0.95;;;9.20;99.90;;;;;;5062971;28;20040;-71
2022/09/27 01:58:18;;;;;;;6.63;0.75;;;;;;;;;;5077085;28;20368;-71
2022/09/27 02:00:48;;;;;;;4.47;0.80;;;9.30;99.90;;;;;;5076768;28;20043;-71
2022/09/27 02:03:19;;;;;;;4.88;0.60;;;9.40;99.90;;;;;;5078812;28;20072;-70
2022/09/27 02:05:51;;;;;;;7.45;0.90;;;9.30;99.90;;;;;;5080515;28;20036;-71
2022/09/27 02:08:40;;;;;;;6.03;1.10;;;9.40;99.90;;;;;;5081870;28;20040;-71
2022/09/27 02:11:10;;;;;;;4.18;1.05;;;9.40;99.90;;;;;;5078653;28;20709;-71
2022/09/27 02:13:47;;;;;;;2.00;0.70;;;9.40;99.90;;;;;;5082067;28;20490;-71
2022/09/27 02:16:51;;;;;;;2.80;0.75;;;9.40;99.90;;;;;;5078714;28;20406;-72
2022/09/27 02:19:39;;;;;;;4.60;0.85;;;9.40;99.90;;;;;;5063950;28;20091;-71
2022/09/27 02:22:12;;;;;;;3.63;0.60;;;9.30;99.90;;;;;;5058157;28;20075;-71
2022/09/27 02:24:53;;;;;;;3.28;1.23;;;9.30;99.90;;;;;;5077460;28;20051;-72
2022/09/27 02:28:01;;;;;;;3.30;1.27;;;9.20;99.90;;;;;;5080439;28;20047;-72
2022/09/27 02:30:27;;;;;;;3.78;0.70;;;9.20;99.90;;;;;;5070463;28;20384;-72
2022/09/27 02:32:53;;;;;;;5.30;0.77;;;9.20;99.90;;;;;;5066631;28;20134;-72
2022/09/27 02:35:28;;;;;;;5.50;1.10;;;9.10;99.90;;;;;;5066246;28;20035;-72
2022/09/27 02:37:54;;;;;;;3.30;0.60;;;9.10;99.90;;;;;;5065526;28;20115;-72
2022/09/27 02:40:21;;;;;;;4.85;0.70;;;9.10;99.90;;;;;;5077766;28;20629;-72
2022/09/27 02:42:47;;;;;;;4.97;0.80;;;9.20;99.90;;;;;;5076814;28;20055;-72
2022/09/27 02:45:14;;;;;;;3.90;0.90;;;9.10;99.90;;;;;;5080372;28;20394;-72
2022/09/27 02:48:24;;;;;;;5.47;0.73;;;9.20;99.90;;;;;;5060203;28;20040;-71
2022/09/27 02:51:35;;;;;;;5.45;0.90;;;9.10;99.90;;;;;;5014271;28;20067;-71
2022/09/27 02:54:29;;;;;;;4.82;0.80;;;9.10;99.90;;;;;;5019453;28;20175;-71
2022/09/27 02:57:00;;;;;;;2.75;0.55;;;9.10;99.90;;;;;;5019308;28;20493;-71
2022/09/27 02:59:58;;;;;;;5.10;0.60;;;9.10;99.90;;;;;;5020695;28;20073;-71
2022/09/27 03:02:48;;;;;;;3.55;0.50;;;9.00;99.90;;;;;;5004763;28;20050;-71
2022/09/27 03:05:21;;;;;;;2.13;0.60;;;9.00;99.90;;;;;;5019513;28;20515;-71
2022/09/27 03:07:47;;;;;;;2.22;0.70;;;8.90;99.90;;;;;;4994046;28;20079;-72
2022/09/27 03:10:31;;;;;;;4.30;0.70;;;9.00;99.90;;;;;;5020569;28;20065;-71
2022/09/27 03:13:00;;;;;;;2.67;0.63;;;8.90;99.90;;;;;;5022213;28;20598;-70
2022/09/27 03:15:25;;;;;;;3.38;0.70;;;8.80;99.90;;;;;;5022348;28;20057;-70
2022/09/27 03:17:51;;;;;;;3.33;0.60;;;8.80;99.90;;;;;;5024116;28;20560;-73
2022/09/27 03:20:17;;;;;;;6.47;0.70;;;8.80;99.90;;;;;;5007490;28;20053;-72
2022/09/27 03:22:42;;;;;;;3.55;0.50;;;8.80;99.90;;;;;;5020997;28;20087;-73
2022/09/27 03:25:08;;;;;;;2.78;0.70;;;8.70;99.90;;;;;;5019664;28;20034;-72
2022/09/27 03:27:34;;;;;;;4.20;0.80;;;8.70;99.90;;;;;;5058012;28;20150;-73
2022/09/27 03:29:59;;;;;;;5.88;0.70;;;8.70;99.90;;;;;;5082825;28;20075;-70
2022/09/27 03:32:25;;;;;;;2.45;0.50;;;8.70;99.90;;;;;;5083888;28;20047;-70
2022/09/27 03:34:54;;;;;;;3.95;0.60;;;8.60;99.90;;;;;;5085166;28;20043;-70
2022/09/27 03:37:20;;;;;;;5.38;1.10;;;8.60;99.90;;;;;;5081002;28;20048;-70
2022/09/27 03:39:46;;;;;;;1.73;0.68;;;8.50;99.90;;;;;;5047738;28;20044;-70
2022/09/27 03:42:12;;;;;;;2.65;0.70;;;8.50;99.90;;;;;;5085876;28;20052;-72
2022/09/27 03:44:37;;;;;;;2.10;0.70;;;8.50;99.90;;;;;;5083826;28;20079;-71
2022/09/27 03:47:03;;;;;;;3.47;0.77;;;8.50;99.90;;;;;;5067640;28;20048;-71
2022/09/27 03:49:29;;;;;;;3.03;0.73;;;8.50;99.90;;;;;;5082525;28;20047;-71
2022/09/27 03:51:54;;;;;;;5.28;0.75;;;8.40;99.90;;;;;;5078676;28;20131;-72
2022/09/27 03:54:20;;;;;;;3.55;0.70;;;8.40;99.90;;;;;;5081778;28;20044;-71
2022/09/27 03:56:46;;;;;;;3.30;0.60;;;;;;;;;;5084957;28;20036;-70
2022/09/27 03:59:11;;;;;;;5.20;0.85;;;8.40;99.90;;;;;;5082042;28;20552;-70
2022/09/27 04:01:37;;;;;;;3.35;0.63;;;8.30;99.90;;;;;;5077907;28;20036;-70
2022/09/27 04:04:06;;;;;;;2.88;0.75;;;8.30;99.90;;;;;;5079616;28;20040;-72
2022/09/27 04:06:33;;;;;;;2.17;0.70;;;8.30;99.90;;;;;;5066099;28;20080;-70
2022/09/27 04:08:59;;;;;;;4.23;0.53;;;8.30;99.90;;;;;;5084843;28;20050;-70
2022/09/27 04:11:25;;;;;;;2.45;0.70;;;8.20;99.90;;;;;;5084675;28;20039;-70
2022/09/27 04:13:50;;;;;;;0.88;0.60;;;8.20;99.90;;;;;;5083951;28;20052;-70
2022/09/27 04:16:16;;;;;;;3.58;0.70;;;8.20;99.90;;;;;;5082549;28;20518;-71
2022/09/27 04:18:42;;;;;;;3.17;0.47;;;8.30;99.90;;;;;;5080250;28;20032;-70
2022/09/27 04:21:08;;;;;;;2.58;0.60;;;8.30;99.90;;;;;;5080698;28;20464;-71
2022/09/27 04:23:34;;;;;;;4.20;0.60;;;8.30;99.90;;;;;;5066629;28;20036;-70
2022/09/27 04:26:00;;;;;;;3.53;0.70;;;8.30;99.90;;;;;;5067192;28;20044;-71
2022/09/27 04:28:27;;;;;;;6.88;0.80;;;8.30;99.90;;;;;;5083627;28;20058;-70
2022/09/27 04:30:53;;;;;;;3.50;0.60;;;8.30;99.90;;;;;;5080449;28;20051;-71
2022/09/27 04:33:18;;;;;;;4.85;0.70;;;8.40;99.90;;;;;;5083053;28;20040;-71
2022/09/27 04:38:28;;;;;;;3.65;0.57;;;8.40;99.90;;;;;;5083015;28;20167;-71
2022/09/27 04:40:54;;;;;;;3.80;0.85;;;8.40;99.90;;;;;;5082086;28;20032;-72
2022/09/27 04:43:19;;;;;;;4.95;0.75;;;8.40;99.90;;;;;;5084134;28;20054;-71
2022/09/27 04:45:45;;;;;;;2.83;0.82;;;8.40;99.90;;;;;;5080795;28;20040;-72
2022/09/27 04:48:11;;;;;;;4.13;0.85;;;8.40;99.90;;;;;;5077559;28;20067;-70
2022/09/27 04:50:38;;;;;;;6.00;0.82;;;8.30;99.90;;;;;;5077802;28;20044;-70
2022/09/27 04:53:04;;;;;;;2.30;0.68;;;8.30;99.90;;;;;;5080871;28;20080;-71
2022/09/27 04:55:29;;;;;;;2.83;0.90;;;8.30;99.90;;;;;;5083627;28;20120;-70
2022/09/27 04:57:55;;;;;;;4.97;0.70;;;8.40;99.90;;;;;;5080847;28;20036;-69
2022/09/27 05:00:21;;;;;;;4.88;0.95;;;8.40;99.90;;;;;;5079417;28;20494;-71
2022/09/27 05:02:47;;;;;;;3.10;0.85;;;8.40;99.90;;;;;;5078823;28;20457;-70
2022/09/27 05:05:13;;;;;;;2.88;0.60;;;8.40;99.90;;;;;;5080100;28;20048;-70
2022/09/27 05:07:39;;;;;;;2.40;0.85;;;8.40;99.90;;;;;;5081210;28;20036;-72
2022/09/27 05:10:06;;;;;;;2.78;0.68;;;8.40;99.90;;;;;;5066116;28;20043;-73
2022/09/27 05:12:31;;;;;;;4.88;1.20;;;8.40;99.90;;;;;;5080773;28;20174;-73
2022/09/27 05:14:57;;;;;;;7.95;1.15;;;8.40;99.90;;;;;;5081051;28;20134;-71
2022/09/27 05:17:23;;;;;;;4.72;0.80;;;8.40;99.90;;;;;;5066220;28;20037;-72
2022/09/27 05:19:49;;;;;;;3.40;0.85;;;8.40;99.90;;;;;;5081745;28;20043;-72
2022/09/27 05:22:15;;;;;;;2.55;1.00;;;8.40;99.90;;;;;;5080871;28;20113;-70
2022/09/27 05:24:40;;;;;;;3.72;0.93;;;8.40;99.90;;;;;;5080000;28;20032;-72
2022/09/27 05:27:09;;;;;;;3.65;0.80;;;8.40;99.90;;;;;;5078343;28;20070;-72
2022/09/27 05:29:35;;;;;;;3.60;0.80;;;8.40;99.90;;;;;;5080945;28;20051;-73
2022/09/27 05:32:01;;;;;;;2.58;0.90;;;8.30;99.90;;;;;;5075656;28;20426;-74
2022/09/27 05:34:27;;;;;;;4.10;0.70;;;8.30;99.90;;;;;;5084856;28;20060;-73
2022/09/27 05:36:52;;;;;;;5.97;1.00;;;8.30;99.90;;;;;;5079767;28;20044;-73
2022/09/27 05:39:18;;;;;;;4.30;1.00;;;8.30;99.90;;;;;;5081144;28;20483;-73
2022/09/27 05:41:45;;;;;;;5.63;0.80;;;8.30;99.90;;;;;;5083944;28;20054;-73
2022/09/27 05:44:14;;;;;;;5.38;1.10;;;8.40;99.90;;;;;;5083277;28;20051;-73
2022/09/27 05:46:39;;;;;;;4.72;0.82;;;8.30;99.90;;;;;;5081135;28;20048;-73
2022/09/27 05:49:05;;;;;;;5.40;0.95;;;8.30;99.90;;;;;;5048279;28;20051;-73
2022/09/27 05:51:31;;;;;;;5.72;0.98;;;8.30;99.90;;;;;;5078863;28;20044;-74
2022/09/27 05:53:57;;;;;;;4.78;0.90;;;8.20;99.90;;;;;;5080808;28;20043;-74
2022/09/27 05:56:23;;;;;;;1.75;0.80;;;8.20;99.90;;;;;;5084408;28;20126;-72
2022/09/27 05:58:50;;;;;;;3.08;1.10;;;8.20;99.90;;;;;;5078323;28;21628;-72
2022/09/27 06:01:16;;;;;;;4.95;1.00;;;8.20;99.90;;;;;;5080552;28;20052;-72
2022/09/27 06:03:41;;;;;;;5.70;1.52;;;8.10;99.90;;;;;;5077669;28;20039;-72
2022/09/27 06:06:09;;;;;;;4.20;1.05;;;8.10;99.90;;;;;;5077740;28;20036;-72
2022/09/27 06:08:37;;;;;;;5.60;1.17;;;8.10;99.90;;;;;;5076308;28;20980;-72
2022/09/27 06:11:05;;;;;;;2.38;0.73;;;8.10;99.90;;;;;;5067596;28;20047;-71
2022/09/27 06:13:35;;;;;;;5.13;0.93;;;8.10;99.90;;;;;;5079709;28;20055;-70
2022/09/27 06:16:01;;;;;;;6.32;1.15;;;8.20;99.90;;;;;;5082853;28;20078;-73
2022/09/27 06:18:27;;;;;;;6.35;1.30;;;8.30;99.90;;;;;;5082797;28;20434;-71
2022/09/27 06:20:53;;;;;;;6.38;1.10;;;8.40;99.90;;;;;;5081665;28;20380;-72
2022/09/27 06:23:21;;;;;;;7.93;1.08;;;8.50;99.90;;;;;;5062574;28;20094;-70
2022/09/27 06:25:48;;;;;;;6.22;1.13;;;8.70;99.90;;;;;;5080014;28;20085;-72
2022/09/27 06:28:14;;;;;;;5.57;1.30;;;8.80;99.90;;;;;;5079337;28;20055;-72
2022/09/27 06:30:42;;;;;;;3.85;1.10;;;9.00;99.90;;;;;;5079787;28;20546;-72
2022/09/27 06:33:13;;;;;;;3.70;1.15;;;9.60;99.90;;;;;;5084737;28;20081;-71
2022/09/27 06:35:41;;;;;;;2.95;1.10;;;10.50;99.90;;;;;;5084505;28;20078;-71
2022/09/27 06:38:08;;;;;;;6.65;1.05;;;11.40;99.90;;;;;;5063675;28;20044;-71
2022/09/27 06:40:35;;;;;;;4.55;1.40;;;12.10;99.90;;;;;;5083584;28;20420;-69
2022/09/27 06:43:07;;;;;;;2.45;0.80;;;12.70;99.90;;;;;;5083436;28;20052;-72
2022/09/27 06:45:34;;;;;;;3.10;0.90;;;13.20;99.90;;;;;;5066584;28;20085;-70
2022/09/27 06:48:05;;;;;;;4.60;1.02;;;13.50;99.90;;;;;;5085946;28;20040;-71
2022/09/27 06:50:37;;;;;;;4.25;1.27;;;14.00;99.90;;;;;;5082648;28;20178;-69
2022/09/27 06:53:04;;;;;;;4.78;0.98;;;14.20;99.90;;;;;;5086826;28;20049;-68
2022/09/27 06:55:30;;;;;;;6.03;1.30;;;14.40;99.90;;;;;;5090062;28;20040;-68
2022/09/27 07:00:45;;;;;;;4.25;0.73;;;13.30;99.90;;;;;;5090532;28;20086;-68
2022/09/27 07:03:12;;;;;;;3.22;0.93;;;12.90;99.90;;;;;;5089904;28;20040;-68
2022/09/27 07:05:38;;;;;;;4.93;1.10;;;12.60;99.90;;;;;;5089532;28;20089;-67
2022/09/27 07:08:04;;;;;;;2.70;0.77;;;12.30;99.90;;;;;;5086359;28;20036;-68
2022/09/27 07:10:34;;;;;;;2.78;0.80;;;12.10;99.90;;;;;;5067489;28;20375;-68
2022/09/27 07:13:04;;;;;;;2.10;0.73;;;11.80;99.90;;;;;;5090259;28;20442;-68
2022/09/27 07:15:31;;;;;;;2.03;0.70;;;11.50;99.90;;;;;;5087377;28;20410;-68
2022/09/27 07:17:59;;;;;;;4.82;0.95;;;11.40;99.90;;;;;;5070856;28;20057;-70
2022/09/27 07:20:26;;;;;;;4.00;0.90;;;11.20;99.90;;;;;;5081407;28;20039;-69
2022/09/27 07:22:52;;;;;;;3.88;1.00;;;11.10;99.90;;;;;;5088544;28;20028;-69
2022/09/27 07:25:18;;;;;;;3.85;0.85;;;11.20;99.90;;;;;;5069907;28;20456;-70
2022/09/27 07:27:43;;;;;;;1.65;0.57;;;11.50;99.90;;;;;;5086883;28;20040;-70
2022/09/27 07:30:10;;;;;;;2.97;0.60;;;11.70;99.90;;;;;;5084598;28;20048;-69
2022/09/27 07:32:37;;;;;;;4.13;0.97;;;11.90;99.90;;;;;;5087998;28;20051;-69
2022/09/27 07:35:03;;;;;;;4.57;1.05;;;12.00;99.90;;;;;;5088092;28;20048;-70
2022/09/27 07:37:31;;;;;;;4.40;0.60;;;12.00;99.90;;;;;;5085304;28;20032;-69
2022/09/27 07:39:57;;;;;;;;;;;12.00;99.90;;;;;;5085553;28;20096;-70
2022/09/27 07:42:23;;;;;;;1.45;0.40;;;11.90;99.90;;;;;;5085616;28;19919;-70
2022/09/27 07:44:49;;;;;;;2.33;0.75;;;11.80;99.90;;;;;;5087033;28;20087;-70
2022/09/27 07:47:15;;;;;;;2.03;0.57;;;11.80;99.90;;;;;;5083186;28;20044;-70
2022/09/27 07:49:41;;;;;;;1.42;0.60;;;12.00;99.90;;;;;;5086801;28;20059;-70
2022/09/27 07:52:07;;;;;;;3.38;0.55;;;12.30;99.90;;;;;;5087891;28;21785;-71
2022/09/27 07:54:32;;;;;;;3.88;0.60;;;12.50;99.90;;;;;;5087719;28;20082;-73
2022/09/27 07:56:58;;;;;;;2.80;0.63;;;12.60;99.90;;;;;;5086413;28;21700;-73
2022/09/27 07:59:23;;;;;;;1.67;0.63;;;12.50;99.90;;;;;;5087186;28;20119;-72
2022/09/27 08:01:49;;;;;;;2.92;0.70;;;12.30;99.90;;;;;;5071302;28;20448;-71
2022/09/27 08:04:15;;;;;;;1.65;0.60;;;12.20;99.90;;;;;;5088850;28;20039;-70
2022/09/27 08:06:41;;;;;;;1.20;0.70;;;12.00;99.90;;;;;;5090180;28;20054;-71
2022/09/27 08:09:08;;;;;;;2.42;0.50;;;12.10;99.90;;;;;;5089816;28;20537;-70
2022/09/27 08:11:36;;;;;;;4.03;1.00;;;12.20;99.90;;;;;;5070647;28;20608;-70
2022/09/27 08:14:03;;;;;;;1.70;0.63;;;12.30;99.90;;;;;;5087303;28;20047;-70
2022/09/27 08:16:29;;;;;;;1.87;0.77;;;12.50;99.90;;;;;;5086924;28;20046;-71
2022/09/27 08:18:55;;;;;;;2.05;0.60;;;12.90;99.90;;;;;;5087053;28;20117;-71
2022/09/27 08:21:20;;;;;;;1.85;0.50;;;13.30;99.90;;;;;;5091380;28;20111;-71
2022/09/27 08:23:46;;;;;;;1.33;0.57;;;13.50;99.90;;;;;;5086995;28;20056;-71
2022/09/27 08:26:12;;;;;;;3.05;0.70;;;13.40;99.90;;;;;;5064048;28;20491;-71
2022/09/27 08:28:37;;;;;;;1.60;0.68;;;13.20;99.90;;;;;;5081579;28;20387;-71
2022/09/27 08:31:03;;;;;;;1.67;0.50;;;13.10;99.90;;;;;;5087941;28;20051;-71
2022/09/27 08:33:28;;;;;;;2.72;0.50;;;12.90;99.90;;;;;;5090389;28;20182;-72
2022/09/27 08:35:57;;;;;;;1.52;0.40;;;13.00;99.90;;;;;;5087293;28;20045;-71
2022/09/27 08:38:22;;;;;;;2.80;0.57;;;13.10;99.90;;;;;;5080920;28;20044;-70
2022/09/27 08:40:55;;;;;;;3.35;0.60;;;13.20;99.90;;;;;;5081787;28;20540;-71
2022/09/27 08:44:04;;;;;;;1.55;0.52;;;13.40;99.90;;;;;;5087931;28;20402;-70
2022/09/27 08:46:42;;;;;;;2.10;0.43;;;13.50;99.90;;;;;;5085812;28;20179;-71
2022/09/27 08:49:17;;;;;;;7.47;1.20;;;13.40;99.90;;;;;;5083311;28;20056;-71
2022/09/27 08:51:47;;;;;;;2.40;0.68;;;13.50;99.90;;;;;;5066500;28;20047;-70
2022/09/27 08:54:25;;;;;;;2.03;0.60;;;13.60;99.90;;;;;;5092133;28;20411;-72
2022/09/27 08:56:56;;;;;;;2.65;0.50;;;;;;;;;;5091285;28;20047;-72
2022/09/27 08:59:28;;;;;;;2.30;0.50;;;14.40;99.90;;;;;;5083852;28;20458;-71
2022/09/27 09:01:54;;;;;;;1.20;0.40;;;14.30;99.90;;;;;;5090554;28;20128;-70
2022/09/27 09:04:30;;;;;;;1.65;0.32;;;14.60;99.90;;;;;;5089598;28;20457;-70
2022/09/27 09:07:14;;;;;;;1.98;0.70;;;14.80;99.90;;;;;;5075598;28;20056;-72
2022/09/27 09:13:49;;;;;;;1.73;0.30;;;14.70;99.90;;;;;;5056038;28;20056;-71
2022/09/27 09:16:15;;;;;;;1.10;0.40;;;14.40;99.90;;;;;;5089223;28;20392;-71
2022/09/27 09:19:06;;;;;;;1.77;0.50;;;14.80;99.90;;;;;;5086116;28;20051;-71
2022/09/27 09:21:39;;;;;;;2.67;0.60;;;15.10;99.90;;;;;;5066535;28;20047;-71
2022/09/27 09:24:22;;;;;;;2.30;0.52;;;15.30;99.90;;;;;;5070195;28;20083;-72
2022/09/27 09:27:16;;;;;;;2.17;0.40;;;15.10;99.90;;;;;;5085037;28;20101;-71
2022/09/27 09:29:52;;;;;;;2.03;0.57;;;15.10;99.90;;;;;;5085674;28;20040;-71
2022/09/27 09:32:37;;;;;;;1.38;0.40;;;14.80;99.90;;;;;;5069777;28;20075;-72
2022/09/27 09:35:11;;;;;;;1.50;0.60;;;14.70;99.90;;;;;;5076901;28;20043;-71
2022/09/27 09:37:42;;;;;;;2.70;0.32;;;14.70;99.90;;;;;;5087831;28;20040;-72
2022/09/27 09:40:42;;;;;;;3.13;0.40;;;14.70;99.90;;;;;;5088065;28;20101;-72
2022/09/27 09:43:19;;;;;;;0.65;0.30;;;14.70;99.90;;;;;;5078421;28;20459;-71
2022/09/27 09:45:52;;;;;;;0.75;0.30;;;14.60;99.90;;;;;;5088586;28;20040;-71
2022/09/27 09:48:22;;;;;;;0.90;0.20;;;14.60;99.90;;;;;;5085730;28;20051;-71
2022/09/27 09:50:53;;;;;;;2.05;0.40;;;14.60;99.90;;;;;;5084661;28;20098;-72
2022/09/27 09:53:38;;;;;;;1.40;0.30;;;14.60;99.90;;;;;;5087240;28;20080;-72
2022/09/27 09:56:31;;;;;;;1.08;0.30;;;14.40;99.90;;;;;;5086973;28;20113;-72
2022/09/27 09:59:04;;;;;;;1.17;0.30;;;14.50;99.90;;;;;;5088509;28;20058;-72
2022/09/27 10:01:37;;;;;;;4.85;0.40;;;14.40;99.90;;;;;;5074544;28;20422;-73
2022/09/27 10:04:02;;;;;;;2.00;0.40;;;14.10;99.90;;;;;;5091779;28;20495;-72
2022/09/27 10:06:30;;;;;;;0.38;0.30;;;13.80;99.90;;;;;;5097623;28;20124;-72
2022/09/27 10:08:55;;;;;;;1.73;0.43;;;13.60;99.90;;;;;;5097966;28;20047;-72
2022/09/27 10:11:27;;;;;;;1.25;0.30;;;13.30;99.90;;;;;;5095616;28;20270;-72
2022/09/27 10:13:55;;;;;;;1.02;0.20;;;13.20;99.90;;;;;;5074799;28;20395;-72
2022/09/27 10:16:21;;;;;;;0.63;0.22;;;13.00;99.90;;;;;;5078506;28;20048;-72
2022/09/27 10:18:50;;;;;;;1.70;0.30;;;13.00;99.90;;;;;;5076574;28;20036;-72
2022/09/27 10:21:23;;;;;;;0.43;0.13;;;13.00;99.90;;;;;;5096424;28;20032;-72
2022/09/27 10:24:07;;;;;;;1.17;0.28;;;12.90;99.90;;;;;;5091798;28;20093;-73
2022/09/27 10:26:34;;;;;;;0.20;0.20;;;12.80;99.90;;;;;;5096622;28;20048;-73
2022/09/27 10:29:19;;;;;;;1.63;0.30;;;12.80;99.90;;;;;;5096517;28;20040;-73
2022/09/27 10:31:47;;;;;;;1.80;0.35;;;12.70;99.90;;;;;;5096537;28;20051;-73
2022/09/27 10:34:36;;;;;;;1.30;0.28;;;12.80;99.90;;;;;;5095059;28;20119;-72
2022/09/27 10:37:11;;;;;;;1.70;0.30;;;12.90;99.90;;;;;;5096203;28;20050;-72
2022/09/27 10:39:40;;;;;;;1.23;0.30;;;13.10;99.90;;;;;;5075098;28;20036;-72
2022/09/27 10:42:32;;;;;;;3.70;0.40;;;13.30;99.90;;;;;;5075191;28;20092;-72
2022/09/27 10:45:18;;;;;;;1.65;0.43;;;13.30;99.90;;;;;;5085679;28;20632;-71
2022/09/27 10:47:43;;;;;;;0.85;0.30;;;13.40;99.90;;;;;;5053827;28;20043;-72
2022/09/27 10:50:20;;;;;;;1.33;0.30;;;13.50;99.90;;;;;;5092022;28;20051;-72
2022/09/27 10:52:47;;;;;;;3.00;0.47;;;13.70;99.90;;;;;;5091311;28;20038;-73
2022/09/27 10:55:23;;;;;;;2.58;0.52;;;13.50;99.90;;;;;;5072710;28;20071;-72
2022/09/27 10:57:52;;;;;;;2.00;0.30;;;13.50;99.90;;;;;;5089289;28;20490;-71
2022/09/27 11:00:33;;;;;;;0.77;0.30;;;13.50;99.90;;;;;;5090721;28;20540;-72
2022/09/27 11:03:13;;;;;;;1.02;0.30;;;13.80;99.90;;;;;;5069240;28;20387;-72
2022/09/27 11:05:39;;;;;;;1.58;0.50;;;13.80;99.90;;;;;;5094509;28;20085;-73
2022/09/27 11:08:17;;;;;;;2.90;0.63;;;13.70;99.90;;;;;;5088282;28;20048;-72
2022/09/27 11:10:42;;;;;;;2.10;0.40;;;13.60;99.90;;;;;;5073459;28;20047;-73
2022/09/27 11:13:16;;;;;;;1.17;0.40;;;13.60;99.90;;;;;;5085027;28;20115;-73
2022/09/27 11:16:08;;;;;;;1.42;0.40;;;13.70;99.90;;;;;;5094885;28;20052;-72
2022/09/27 11:18:54;;;;;;;4.00;0.50;;;13.70;99.90;;;;;;5091540;28;20051;-73
2022/09/27 11:21:44;;;;;;;0.80;0.30;;;14.00;99.90;;;;;;5076280;28;20040;-73
2022/09/27 11:24:40;;;;;;;2.47;0.50;;;14.20;99.90;;;;;;5095440;28;20044;-73
2022/09/27 11:27:41;;;;;;;3.65;0.47;;;14.00;99.90;;;;;;5095532;28;20171;-73
2022/09/27 11:30:20;;;;;;;1.63;0.50;;;13.90;99.90;;;;;;5075397;28;20422;-73
2022/09/27 11:33:12;;;;;;;2.85;0.40;;;13.70;99.90;;;;;;5094263;28;20040;-73
2022/09/27 11:36:00;;;;;;;1.42;0.40;;;13.20;99.90;;;;;;5091369;28;20040;-73
2022/09/27 11:38:41;;;;;;;2.20;0.32;;;13.00;99.90;;;;;;5091630;28;20046;-73
2022/09/27 11:41:19;;;;;;;0.77;0.30;;;12.90;99.90;;;;;;5094877;28;20040;-72
2022/09/27 11:44:02;;;;;;;2.42;0.30;;;13.00;99.90;;;;;;5089350;28;20039;-72
2022/09/27 11:46:31;;;;;;;1.67;0.45;;;13.20;99.90;;;;;;5092525;28;20044;-72
2022/09/27 11:49:22;;;;;;;1.25;0.40;;;13.30;99.90;;;;;;5093370;28;20081;-72
2022/09/27 11:52:13;;;;;;;1.63;0.38;;;13.30;99.90;;;;;;5092730;28;20131;-72
2022/09/27 11:54:41;;;;;;;1.48;0.50;;;13.40;99.90;;;;;;5091031;28;20032;-73
2022/09/27 11:57:49;;;;;;;0.82;0.28;;;13.30;99.90;;;;;;5091584;28;20379;-73
2022/09/27 12:00:23;;;;;;;2.05;0.35;;;13.30;99.90;;;;;;5091887;28;20495;-72
2022/09/27 12:03:36;;;;;;;1.00;0.35;;;13.20;99.90;;;;;;5092380;28;20406;-72
2022/09/27 12:06:02;;;;;;;0.32;0.20;;;13.40;99.90;;;;;;4987168;28;20492;-72
2022/09/27 12:08:47;;;;;;;1.17;0.20;;;13.60;99.90;;;;;;4972360;28;20174;-73
2022/09/27 12:11:18;;;;;;;0.35;0.10;;;13.50;99.90;;;;;;4998410;28;20097;-73
2022/09/27 12:14:01;;;;;;;0.47;0.10;;;13.50;99.90;;;;;;4988950;28;20120;-73
2022/09/27 12:16:29;;;;;;;0.32;0.10;;;13.40;99.90;;;;;;4985932;28;20525;-72
2022/09/27 12:18:56;;;;;;;0.17;0.10;;;13.40;99.90;;;;;;4991880;28;20096;-72
2022/09/27 12:21:22;;;;;;;0.70;0.30;;;13.40;99.90;;;;;;4974997;28;20045;-73
2022/09/27 12:23:52;;;;;;;1.48;0.15;;;13.40;99.90;;;;;;4990868;28;20189;-72
2022/09/27 12:26:36;;;;;;;1.33;0.40;;;13.50;99.90;;;;;;4992250;28;20121;-73
2022/09/27 12:29:32;;;;;;;1.77;0.50;;;13.50;99.90;;;;;;4991282;28;20394;-73
2022/09/27 12:32:01;;;;;;;0.47;0.30;;;13.40;99.90;;;;;;4988764;28;20077;-73
2022/09/27 12:34:37;;;;;;;1.02;0.28;;;13.50;99.90;;;;;;4990319;28;20601;-73
2022/09/27 12:37:17;;;;;;;1.73;0.30;;;13.50;99.90;;;;;;4987476;28;20050;-74
2022/09/27 12:40:26;;;;;;;2.33;0.55;;;13.60;99.90;;;;;;4989550;28;20054;-74
2022/09/27 12:43:13;;;;;;;0.57;0.38;;;13.60;99.90;;;;;;5000395;28;20048;-73
2022/09/27 12:46:04;;;;;;;3.07;0.50;;;13.80;99.90;;;;;;5091343;28;20469;-74
2022/09/27 12:49:03;;;;;;;2.28;0.47;;;13.90;99.90;;;;;;5086470;28;20046;-75
2022/09/27 12:51:56;;;;;;;1.88;0.47;;;13.90;99.90;;;;;;5086637;28;20048;-73
2022/09/27 12:54:40;;;;;;;1.17;0.45;;;14.00;99.90;;;;;;5080930;28;20056;-73
2022/09/27 12:57:36;;;;;;;0.70;0.40;;;14.10;99.90;;;;;;5086769;28;20044;-73
2022/09/27 13:00:05;;;;;;;1.17;0.40;;;14.10;99.90;;;;;;5090160;28;20044;-73
2022/09/27 13:02:46;;;;;;;1.73;0.38;;;14.20;99.90;;;;;;5090159;28;20043;-72
2022/09/27 13:05:31;;;;;;;1.27;0.50;;;14.30;99.90;;;;;;5089757;28;20040;-73
2022/09/27 13:08:33;;;;;;;0.47;0.28;;;14.30;99.90;;;;;;5088673;28;20574;-73
2022/09/27 13:11:13;;;;;;;1.60;0.43;;;14.30;99.90;;;;;;5085283;28;20058;-73
2022/09/27 13:13:39;;;;;;;1.80;0.40;;;14.40;99.90;;;;;;5070732;28;20048;-73
2022/09/27 13:16:06;;;;;;;2.50;0.45;;;14.40;99.90;;;;;;5089376;28;20036;-73
2022/09/27 13:18:35;;;;;;;2.00;0.50;;;14.50;99.90;;;;;;5069502;28;20130;-73
2022/09/27 13:21:08;;;;;;;1.67;0.52;;;14.50;99.90;;;;;;5071722;28;20107;-73
2022/09/27 13:23:34;;;;;;;0.52;0.20;;;14.40;99.90;;;;;;5090448;28;20032;-73
2022/09/27 13:26:08;;;;;;;1.10;0.40;;;14.40;99.90;;;;;;5091103;28;20105;-73
2022/09/27 13:28:57;;;;;;;1.30;0.60;;;14.20;99.90;;;;;;5081324;28;20040;-73
2022/09/27 13:31:52;;;;;;;1.90;0.40;;;14.00;99.90;;;;;;5090848;28;20047;-73